Terminal Aerodrome Forecast
Issued by NWS

Home | Current Version | Previous Version | Text Only | Print | Product List | Glossary Off
Versions: 1 2 3 4 5 6 7 8 9 10 11 12 13

000
FTUS43 KBIS 270526
TAFDIK
TAF
KDIK 270526Z 2706/2806 24004KT P6SM SKC
     FM272000 30006KT P6SM SKC
     FM280200 09004KT P6SM SKC=

USA.gov is the U.S. government's official web portal to all federal, state and local government web resources and services.